sensor_id;sensor_type;location;lat;lon;timestamp;temperature;humidity
30572;DHT22;17348;50.948;10.696;2023-01-15T00:02:32;9.30;99.90
30572;DHT22;17348;50.948;10.696;2023-01-15T00:05:35;9.30;99.90
30572;DHT22;17348;50.948;10.696;2023-01-15T00:08:37;9.30;99.90
30572;DHT22;17348;50.948;10.696;2023-01-15T00:11:41;9.30;99.90
30572;DHT22;17348;50.948;10.696;2023-01-15T00:14:43;9.30;99.90
30572;DHT22;17348;50.948;10.696;2023-01-15T00:17:46;9.30;99.90
30572;DHT22;17348;50.948;10.696;2023-01-15T00:20:48;9.30;99.90
30572;DHT22;17348;50.948;10.696;2023-01-15T00:23:51;9.30;99.90
30572;DHT22;17348;50.948;10.696;2023-01-15T00:27:13;9.40;99.90
30572;DHT22;17348;50.948;10.696;2023-01-15T00:30:32;9.40;99.90
30572;DHT22;17348;50.948;10.696;2023-01-15T00:33:35;9.40;99.90
30572;DHT22;17348;50.948;10.696;2023-01-15T00:36:37;9.40;99.90
30572;DHT22;17348;50.948;10.696;2023-01-15T00:39:40;9.40;99.90
30572;DHT22;17348;50.948;10.696;2023-01-15T00:42:44;9.50;99.90
30572;DHT22;17348;50.948;10.696;2023-01-15T00:45:46;9.50;99.90
30572;DHT22;17348;50.948;10.696;2023-01-15T00:48:49;9.50;99.90
30572;DHT22;17348;50.948;10.696;2023-01-15T00:51:51;9.60;99.90
30572;DHT22;17348;50.948;10.696;2023-01-15T00:54:53;9.60;99.90
30572;DHT22;17348;50.948;10.696;2023-01-15T00:57:57;9.70;99.90
30572;DHT22;17348;50.948;10.696;2023-01-15T01:00:59;9.70;99.90
30572;DHT22;17348;50.948;10.696;2023-01-15T01:04:02;9.80;99.90
30572;DHT22;17348;50.948;10.696;2023-01-15T01:07:04;9.80;99.90
30572;DHT22;17348;50.948;10.696;2023-01-15T01:10:07;9.90;99.90
30572;DHT22;17348;50.948;10.696;2023-01-15T01:13:11;9.90;99.90
30572;DHT22;17348;50.948;10.696;2023-01-15T01:16:26;9.90;99.90
30572;DHT22;17348;50.948;10.696;2023-01-15T01:19:30;9.90;99.90
30572;DHT22;17348;50.948;10.696;2023-01-15T01:22:32;9.90;99.90
30572;DHT22;17348;50.948;10.696;2023-01-15T01:25:35;10.00;99.90
30572;DHT22;17348;50.948;10.696;2023-01-15T01:28:39;10.00;99.90
30572;DHT22;17348;50.948;10.696;2023-01-15T01:31:41;10.00;99.90
30572;DHT22;17348;50.948;10.696;2023-01-15T01:34:43;10.00;99.90
30572;DHT22;17348;50.948;10.696;2023-01-15T01:37:48;10.10;99.90
30572;DHT22;17348;50.948;10.696;2023-01-15T01:40:51;10.10;99.90
30572;DHT22;17348;50.948;10.696;2023-01-15T01:43:59;10.10;99.90
30572;DHT22;17348;50.948;10.696;2023-01-15T01:47:04;10.10;99.90
30572;DHT22;17348;50.948;10.696;2023-01-15T01:50:10;10.10;99.90
30572;DHT22;17348;50.948;10.696;2023-01-15T01:53:17;10.10;99.90
30572;DHT22;17348;50.948;10.696;2023-01-15T01:56:21;10.10;99.90
30572;DHT22;17348;50.948;10.696;2023-01-15T01:59:26;10.10;99.90
30572;DHT22;17348;50.948;10.696;2023-01-15T02:02:28;10.20;99.90
30572;DHT22;17348;50.948;10.696;2023-01-15T02:05:33;10.10;99.90
30572;DHT22;17348;50.948;10.696;2023-01-15T02:08:36;10.20;99.90
30572;DHT22;17348;50.948;10.696;2023-01-15T02:11:39;10.20;99.90
30572;DHT22;17348;50.948;10.696;2023-01-15T02:14:48;10.20;99.90
30572;DHT22;17348;50.948;10.696;2023-01-15T02:17:55;10.20;99.90
30572;DHT22;17348;50.948;10.696;2023-01-15T02:21:05;10.20;99.90
30572;DHT22;17348;50.948;10.696;2023-01-15T02:24:10;10.20;99.90
30572;DHT22;17348;50.948;10.696;2023-01-15T02:27:16;10.20;99.90
30572;DHT22;17348;50.948;10.696;2023-01-15T02:30:26;10.20;99.90
30572;DHT22;17348;50.948;10.696;2023-01-15T02:33:32;10.20;99.90
30572;DHT22;17348;50.948;10.696;2023-01-15T02:36:39;10.20;99.90
30572;DHT22;17348;50.948;10.696;2023-01-15T02:39:45;10.20;99.90
30572;DHT22;17348;50.948;10.696;2023-01-15T02:42:50;10.20;99.90
30572;DHT22;17348;50.948;10.696;2023-01-15T02:45:54;10.00;99.90
30572;DHT22;17348;50.948;10.696;2023-01-15T02:48:57;9.90;99.90
30572;DHT22;17348;50.948;10.696;2023-01-15T02:52:02;9.50;99.90
30572;DHT22;17348;50.948;10.696;2023-01-15T02:55:10;9.20;99.90
30572;DHT22;17348;50.948;10.696;2023-01-15T02:58:18;9.10;99.90
30572;DHT22;17348;50.948;10.696;2023-01-15T03:01:32;9.00;99.90
30572;DHT22;17348;50.948;10.696;2023-01-15T03:04:41;8.90;99.90
30572;DHT22;17348;50.948;10.696;2023-01-15T03:07:48;8.80;99.90
30572;DHT22;17348;50.948;10.696;2023-01-15T03:10:57;8.80;99.90
30572;DHT22;17348;50.948;10.696;2023-01-15T03:14:08;8.70;99.90
30572;DHT22;17348;50.948;10.696;2023-01-15T03:17:19;8.60;99.90
30572;DHT22;17348;50.948;10.696;2023-01-15T03:20:28;8.50;99.90
30572;DHT22;17348;50.948;10.696;2023-01-15T03:23:34;8.50;99.90
30572;DHT22;17348;50.948;10.696;2023-01-15T03:26:37;8.50;99.90
30572;DHT22;17348;50.948;10.696;2023-01-15T03:29:42;8.50;99.90
30572;DHT22;17348;50.948;10.696;2023-01-15T03:32:46;8.50;99.90
30572;DHT22;17348;50.948;10.696;2023-01-15T03:35:51;8.50;99.90
30572;DHT22;17348;50.948;10.696;2023-01-15T03:38:53;8.40;99.90
30572;DHT22;17348;50.948;10.696;2023-01-15T03:42:04;8.30;99.90
30572;DHT22;17348;50.948;10.696;2023-01-15T03:45:16;8.30;99.90
30572;DHT22;17348;50.948;10.696;2023-01-15T03:48:26;8.20;99.90
30572;DHT22;17348;50.948;10.696;2023-01-15T03:51:36;8.10;99.90
30572;DHT22;17348;50.948;10.696;2023-01-15T03:54:45;8.10;99.90
30572;DHT22;17348;50.948;10.696;2023-01-15T03:57:52;8.00;99.90
30572;DHT22;17348;50.948;10.696;2023-01-15T04:01:00;8.00;99.90
30572;DHT22;17348;50.948;10.696;2023-01-15T04:04:04;8.10;99.90
30572;DHT22;17348;50.948;10.696;2023-01-15T04:07:07;8.00;99.90
30572;DHT22;17348;50.948;10.696;2023-01-15T04:10:10;8.00;99.90
30572;DHT22;17348;50.948;10.696;2023-01-15T04:13:12;8.00;99.90
30572;DHT22;17348;50.948;10.696;2023-01-15T04:16:20;8.00;99.90
30572;DHT22;17348;50.948;10.696;2023-01-15T04:19:25;7.90;99.90
30572;DHT22;17348;50.948;10.696;2023-01-15T04:22:27;7.90;99.90
30572;DHT22;17348;50.948;10.696;2023-01-15T04:25:30;7.90;99.90
30572;DHT22;17348;50.948;10.696;2023-01-15T04:28:33;7.90;99.90
30572;DHT22;17348;50.948;10.696;2023-01-15T04:31:36;7.80;99.90
30572;DHT22;17348;50.948;10.696;2023-01-15T04:34:39;7.80;99.90
30572;DHT22;17348;50.948;10.696;2023-01-15T04:37:41;7.70;99.90
30572;DHT22;17348;50.948;10.696;2023-01-15T04:40:44;7.70;99.90
30572;DHT22;17348;50.948;10.696;2023-01-15T04:44:04;7.70;99.90
30572;DHT22;17348;50.948;10.696;2023-01-15T04:47:10;7.60;99.90
30572;DHT22;17348;50.948;10.696;2023-01-15T04:50:12;7.60;99.90
30572;DHT22;17348;50.948;10.696;2023-01-15T04:53:15;7.50;99.90
30572;DHT22;17348;50.948;10.696;2023-01-15T04:56:17;7.50;99.90
30572;DHT22;17348;50.948;10.696;2023-01-15T04:59:22;7.40;99.90
30572;DHT22;17348;50.948;10.696;2023-01-15T05:02:26;7.30;99.90
30572;DHT22;17348;50.948;10.696;2023-01-15T05:05:28;7.20;99.90
30572;DHT22;17348;50.948;10.696;2023-01-15T05:08:32;7.20;99.90
30572;DHT22;17348;50.948;10.696;2023-01-15T05:11:35;7.10;99.90
30572;DHT22;17348;50.948;10.696;2023-01-15T05:14:37;7.00;99.90
30572;DHT22;17348;50.948;10.696;2023-01-15T05:17:41;6.90;99.90
30572;DHT22;17348;50.948;10.696;2023-01-15T05:20:43;6.80;99.90
30572;DHT22;17348;50.948;10.696;2023-01-15T05:23:46;6.80;99.90
30572;DHT22;17348;50.948;10.696;2023-01-15T05:26:48;6.70;99.90
30572;DHT22;17348;50.948;10.696;2023-01-15T05:29:51;6.70;99.90
30572;DHT22;17348;50.948;10.696;2023-01-15T05:32:55;6.60;99.90
30572;DHT22;17348;50.948;10.696;2023-01-15T05:36:00;6.60;99.90
30572;DHT22;17348;50.948;10.696;2023-01-15T05:39:02;6.50;99.90
30572;DHT22;17348;50.948;10.696;2023-01-15T05:42:05;6.50;99.90
30572;DHT22;17348;50.948;10.696;2023-01-15T05:45:08;6.30;99.90
30572;DHT22;17348;50.948;10.696;2023-01-15T05:48:12;6.30;99.90
30572;DHT22;17348;50.948;10.696;2023-01-15T05:51:15;6.20;99.90
30572;DHT22;17348;50.948;10.696;2023-01-15T05:54:19;6.10;99.90
30572;DHT22;17348;50.948;10.696;2023-01-15T05:57:21;6.10;99.90
30572;DHT22;17348;50.948;10.696;2023-01-15T06:00:24;6.00;99.90
30572;DHT22;17348;50.948;10.696;2023-01-15T06:03:28;5.90;99.90
30572;DHT22;17348;50.948;10.696;2023-01-15T06:06:30;5.90;99.90
30572;DHT22;17348;50.948;10.696;2023-01-15T06:09:33;5.80;99.90
30572;DHT22;17348;50.948;10.696;2023-01-15T06:12:35;5.80;99.90
30572;DHT22;17348;50.948;10.696;2023-01-15T06:15:38;5.70;99.90
30572;DHT22;17348;50.948;10.696;2023-01-15T06:18:42;5.60;99.90
30572;DHT22;17348;50.948;10.696;2023-01-15T06:21:44;5.50;99.90
30572;DHT22;17348;50.948;10.696;2023-01-15T06:24:46;5.50;99.90
30572;DHT22;17348;50.948;10.696;2023-01-15T06:27:49;5.40;99.90
30572;DHT22;17348;50.948;10.696;2023-01-15T06:30:51;5.40;99.90
30572;DHT22;17348;50.948;10.696;2023-01-15T06:33:55;5.30;99.90
30572;DHT22;17348;50.948;10.696;2023-01-15T06:36:57;5.30;99.90
30572;DHT22;17348;50.948;10.696;2023-01-15T06:39:59;5.20;99.90
30572;DHT22;17348;50.948;10.696;2023-01-15T06:43:02;5.20;99.90
30572;DHT22;17348;50.948;10.696;2023-01-15T06:46:22;5.20;99.90
30572;DHT22;17348;50.948;10.696;2023-01-15T06:49:43;5.10;99.90
30572;DHT22;17348;50.948;10.696;2023-01-15T06:52:45;5.10;99.90
30572;DHT22;17348;50.948;10.696;2023-01-15T06:55:47;5.10;99.90
30572;DHT22;17348;50.948;10.696;2023-01-15T06:58:50;5.10;99.90
30572;DHT22;17348;50.948;10.696;2023-01-15T07:01:52;5.10;99.90
30572;DHT22;17348;50.948;10.696;2023-01-15T07:04:56;5.10;99.90
30572;DHT22;17348;50.948;10.696;2023-01-15T07:07:58;5.10;99.90
30572;DHT22;17348;50.948;10.696;2023-01-15T07:11:05;5.10;99.90
30572;DHT22;17348;50.948;10.696;2023-01-15T07:14:08;5.10;99.90
30572;DHT22;17348;50.948;10.696;2023-01-15T07:17:10;5.10;99.90
30572;DHT22;17348;50.948;10.696;2023-01-15T07:20:15;5.10;99.90
30572;DHT22;17348;50.948;10.696;2023-01-15T07:23:19;5.00;99.90
30572;DHT22;17348;50.948;10.696;2023-01-15T07:26:21;5.00;99.90
30572;DHT22;17348;50.948;10.696;2023-01-15T07:29:23;5.00;99.90
30572;DHT22;17348;50.948;10.696;2023-01-15T07:32:25;5.00;99.90
30572;DHT22;17348;50.948;10.696;2023-01-15T07:35:29;5.00;99.90
30572;DHT22;17348;50.948;10.696;2023-01-15T07:38:31;5.00;99.90
30572;DHT22;17348;50.948;10.696;2023-01-15T07:41:34;5.00;99.90
30572;DHT22;17348;50.948;10.696;2023-01-15T07:44:54;5.00;99.90
30572;DHT22;17348;50.948;10.696;2023-01-15T07:48:13;5.00;99.90
30572;DHT22;17348;50.948;10.696;2023-01-15T07:51:35;5.00;99.90
30572;DHT22;17348;50.948;10.696;2023-01-15T07:54:37;5.00;99.90
30572;DHT22;17348;50.948;10.696;2023-01-15T07:57:40;5.10;99.90
30572;DHT22;17348;50.948;10.696;2023-01-15T08:00:43;5.10;99.90
30572;DHT22;17348;50.948;10.696;2023-01-15T08:03:45;5.20;99.90
30572;DHT22;17348;50.948;10.696;2023-01-15T08:06:49;5.30;99.90
30572;DHT22;17348;50.948;10.696;2023-01-15T08:09:51;5.30;99.90
30572;DHT22;17348;50.948;10.696;2023-01-15T08:12:53;5.30;99.90
30572;DHT22;17348;50.948;10.696;2023-01-15T08:16:13;5.30;99.90
30572;DHT22;17348;50.948;10.696;2023-01-15T08:19:15;5.30;99.90
30572;DHT22;17348;50.948;10.696;2023-01-15T08:22:19;5.30;99.90
30572;DHT22;17348;50.948;10.696;2023-01-15T08:25:23;5.30;99.90
30572;DHT22;17348;50.948;10.696;2023-01-15T08:28:25;5.40;99.90
30572;DHT22;17348;50.948;10.696;2023-01-15T08:31:28;5.40;99.90
30572;DHT22;17348;50.948;10.696;2023-01-15T08:34:30;5.50;99.90
30572;DHT22;17348;50.948;10.696;2023-01-15T08:37:34;5.50;99.90
30572;DHT22;17348;50.948;10.696;2023-01-15T08:40:37;5.50;99.90
30572;DHT22;17348;50.948;10.696;2023-01-15T08:43:58;5.60;99.90
30572;DHT22;17348;50.948;10.696;2023-01-15T08:47:01;5.60;99.90
30572;DHT22;17348;50.948;10.696;2023-01-15T08:50:04;5.60;99.90
30572;DHT22;17348;50.948;10.696;2023-01-15T08:53:09;5.60;99.90
30572;DHT22;17348;50.948;10.696;2023-01-15T08:56:12;5.60;99.90
30572;DHT22;17348;50.948;10.696;2023-01-15T08:59:15;5.60;99.90
30572;DHT22;17348;50.948;10.696;2023-01-15T09:02:18;5.60;99.90
30572;DHT22;17348;50.948;10.696;2023-01-15T09:05:20;5.60;99.90
30572;DHT22;17348;50.948;10.696;2023-01-15T09:08:23;5.60;99.90
30572;DHT22;17348;50.948;10.696;2023-01-15T09:11:26;5.70;99.90
30572;DHT22;17348;50.948;10.696;2023-01-15T09:14:29;5.70;99.90
30572;DHT22;17348;50.948;10.696;2023-01-15T09:17:32;5.80;99.90
30572;DHT22;17348;50.948;10.696;2023-01-15T09:20:39;5.80;99.90
30572;DHT22;17348;50.948;10.696;2023-01-15T09:23:43;5.90;99.90
30572;DHT22;17348;50.948;10.696;2023-01-15T09:26:45;5.90;99.90
30572;DHT22;17348;50.948;10.696;2023-01-15T09:29:47;6.00;99.90
30572;DHT22;17348;50.948;10.696;2023-01-15T09:32:50;6.00;99.90
30572;DHT22;17348;50.948;10.696;2023-01-15T09:35:52;6.10;99.90
30572;DHT22;17348;50.948;10.696;2023-01-15T09:38:57;6.10;99.90
30572;DHT22;17348;50.948;10.696;2023-01-15T09:42:12;6.10;99.90
30572;DHT22;17348;50.948;10.696;2023-01-15T09:45:20;6.10;99.90
30572;DHT22;17348;50.948;10.696;2023-01-15T09:48:36;6.10;99.90
30572;DHT22;17348;50.948;10.696;2023-01-15T09:51:45;6.10;99.90
30572;DHT22;17348;50.948;10.696;2023-01-15T09:54:54;6.10;99.90
30572;DHT22;17348;50.948;10.696;2023-01-15T09:57:59;6.00;99.90
30572;DHT22;17348;50.948;10.696;2023-01-15T10:01:04;6.00;99.90
30572;DHT22;17348;50.948;10.696;2023-01-15T10:04:15;5.90;99.90
30572;DHT22;17348;50.948;10.696;2023-01-15T10:07:26;5.80;99.90
30572;DHT22;17348;50.948;10.696;2023-01-15T10:10:36;5.80;99.90
30572;DHT22;17348;50.948;10.696;2023-01-15T10:13:43;5.70;99.90
30572;DHT22;17348;50.948;10.696;2023-01-15T10:16:47;5.70;99.90
30572;DHT22;17348;50.948;10.696;2023-01-15T10:19:50;5.70;99.90
30572;DHT22;17348;50.948;10.696;2023-01-15T10:26:31;5.60;99.90
30572;DHT22;17348;50.948;10.696;2023-01-15T10:29:41;5.60;99.90
30572;DHT22;17348;50.948;10.696;2023-01-15T10:32:45;5.70;99.90
30572;DHT22;17348;50.948;10.696;2023-01-15T10:35:56;5.70;99.90
30572;DHT22;17348;50.948;10.696;2023-01-15T10:39:03;5.60;99.90
30572;DHT22;17348;50.948;10.696;2023-01-15T10:42:17;5.60;99.90
30572;DHT22;17348;50.948;10.696;2023-01-15T10:45:26;5.60;99.90
30572;DHT22;17348;50.948;10.696;2023-01-15T10:48:36;5.70;99.90
30572;DHT22;17348;50.948;10.696;2023-01-15T10:51:42;5.70;99.90
30572;DHT22;17348;50.948;10.696;2023-01-15T10:54:48;5.70;99.90
30572;DHT22;17348;50.948;10.696;2023-01-15T10:57:59;5.60;99.90
30572;DHT22;17348;50.948;10.696;2023-01-15T11:01:08;5.70;99.90
30572;DHT22;17348;50.948;10.696;2023-01-15T11:04:11;5.70;99.90
30572;DHT22;17348;50.948;10.696;2023-01-15T11:07:15;5.80;99.90
30572;DHT22;17348;50.948;10.696;2023-01-15T11:10:20;5.80;99.90
30572;DHT22;17348;50.948;10.696;2023-01-15T11:13:25;5.80;99.90
30572;DHT22;17348;50.948;10.696;2023-01-15T11:16:45;5.80;99.90
30572;DHT22;17348;50.948;10.696;2023-01-15T11:20:02;5.80;99.90
30572;DHT22;17348;50.948;10.696;2023-01-15T11:23:07;5.70;99.90
30572;DHT22;17348;50.948;10.696;2023-01-15T11:26:16;5.70;99.90
30572;DHT22;17348;50.948;10.696;2023-01-15T11:29:29;5.60;99.90
30572;DHT22;17348;50.948;10.696;2023-01-15T11:32:34;5.70;99.90
30572;DHT22;17348;50.948;10.696;2023-01-15T11:35:37;5.70;99.90
30572;DHT22;17348;50.948;10.696;2023-01-15T11:38:50;5.70;99.90
30572;DHT22;17348;50.948;10.696;2023-01-15T11:41:58;5.70;99.90
30572;DHT22;17348;50.948;10.696;2023-01-15T11:45:20;5.80;99.90
30572;DHT22;17348;50.948;10.696;2023-01-15T11:48:44;5.70;99.90
30572;DHT22;17348;50.948;10.696;2023-01-15T11:52:07;5.70;99.90
30572;DHT22;17348;50.948;10.696;2023-01-15T11:55:12;5.70;99.90
30572;DHT22;17348;50.948;10.696;2023-01-15T11:58:15;5.70;99.90
30572;DHT22;17348;50.948;10.696;2023-01-15T12:01:24;5.70;99.90
30572;DHT22;17348;50.948;10.696;2023-01-15T12:04:35;5.70;99.90
30572;DHT22;17348;50.948;10.696;2023-01-15T12:07:40;5.70;99.90
30572;DHT22;17348;50.948;10.696;2023-01-15T12:10:45;5.70;99.90
30572;DHT22;17348;50.948;10.696;2023-01-15T12:18:01;5.90;99.90
30572;DHT22;17348;50.948;10.696;2023-01-15T12:21:18;5.90;99.90
30572;DHT22;17348;50.948;10.696;2023-01-15T12:28:03;6.00;99.90
30572;DHT22;17348;50.948;10.696;2023-01-15T12:31:10;6.00;99.90
30572;DHT22;17348;50.948;10.696;2023-01-15T12:34:19;6.00;99.90
30572;DHT22;17348;50.948;10.696;2023-01-15T12:37:27;6.10;99.90
30572;DHT22;17348;50.948;10.696;2023-01-15T12:40:37;6.10;99.90
30572;DHT22;17348;50.948;10.696;2023-01-15T12:43:45;6.10;99.90
30572;DHT22;17348;50.948;10.696;2023-01-15T12:47:10;6.10;99.90
30572;DHT22;17348;50.948;10.696;2023-01-15T12:50:28;6.10;99.90
30572;DHT22;17348;50.948;10.696;2023-01-15T12:53:39;6.10;99.90
30572;DHT22;17348;50.948;10.696;2023-01-15T12:56:49;6.00;99.90
30572;DHT22;17348;50.948;10.696;2023-01-15T12:59:59;6.10;99.90
30572;DHT22;17348;50.948;10.696;2023-01-15T13:03:14;6.20;99.90
30572;DHT22;17348;50.948;10.696;2023-01-15T13:06:19;6.20;99.90
30572;DHT22;17348;50.948;10.696;2023-01-15T13:09:34;6.20;99.90
30572;DHT22;17348;50.948;10.696;2023-01-15T13:12:39;6.30;99.90
30572;DHT22;17348;50.948;10.696;2023-01-15T13:19:22;6.20;99.90
30572;DHT22;17348;50.948;10.696;2023-01-15T13:22:29;6.10;99.90
30572;DHT22;17348;50.948;10.696;2023-01-15T13:25:59;6.20;99.90
30572;DHT22;17348;50.948;10.696;2023-01-15T13:29:15;6.20;99.90
30572;DHT22;17348;50.948;10.696;2023-01-15T13:32:21;6.20;99.90
30572;DHT22;17348;50.948;10.696;2023-01-15T13:35:29;6.10;99.90
30572;DHT22;17348;50.948;10.696;2023-01-15T13:38:39;6.20;99.90
30572;DHT22;17348;50.948;10.696;2023-01-15T13:41:41;6.20;99.90
30572;DHT22;17348;50.948;10.696;2023-01-15T13:45:04;6.20;99.90
30572;DHT22;17348;50.948;10.696;2023-01-15T13:48:14;6.20;99.90
30572;DHT22;17348;50.948;10.696;2023-01-15T13:51:25;6.20;99.90
30572;DHT22;17348;50.948;10.696;2023-01-15T13:54:31;6.20;99.90
30572;DHT22;17348;50.948;10.696;2023-01-15T13:57:35;6.20;99.90
30572;DHT22;17348;50.948;10.696;2023-01-15T14:00:38;6.20;99.90
30572;DHT22;17348;50.948;10.696;2023-01-15T14:03:40;6.20;99.90
30572;DHT22;17348;50.948;10.696;2023-01-15T14:06:44;6.10;99.90
30572;DHT22;17348;50.948;10.696;2023-01-15T14:09:48;6.10;99.90
30572;DHT22;17348;50.948;10.696;2023-01-15T14:12:58;6.10;99.90
30572;DHT22;17348;50.948;10.696;2023-01-15T14:16:11;6.00;99.90
30572;DHT22;17348;50.948;10.696;2023-01-15T14:23:02;6.00;99.90
30572;DHT22;17348;50.948;10.696;2023-01-15T14:26:17;6.10;99.90
30572;DHT22;17348;50.948;10.696;2023-01-15T14:29:49;6.10;99.90
30572;DHT22;17348;50.948;10.696;2023-01-15T14:33:03;6.10;99.90
30572;DHT22;17348;50.948;10.696;2023-01-15T14:36:09;6.10;99.90
30572;DHT22;17348;50.948;10.696;2023-01-15T14:39:27;6.00;99.90
30572;DHT22;17348;50.948;10.696;2023-01-15T14:42:32;6.00;99.90
30572;DHT22;17348;50.948;10.696;2023-01-15T14:45:54;6.00;99.90
30572;DHT22;17348;50.948;10.696;2023-01-15T14:49:02;6.00;99.90
30572;DHT22;17348;50.948;10.696;2023-01-15T14:52:05;6.00;99.90
30572;DHT22;17348;50.948;10.696;2023-01-15T14:55:10;5.90;99.90
30572;DHT22;17348;50.948;10.696;2023-01-15T14:58:24;5.90;99.90
30572;DHT22;17348;50.948;10.696;2023-01-15T15:01:42;5.90;99.90
30572;DHT22;17348;50.948;10.696;2023-01-15T15:04:47;5.80;99.90
30572;DHT22;17348;50.948;10.696;2023-01-15T15:07:52;5.80;99.90
30572;DHT22;17348;50.948;10.696;2023-01-15T15:10:55;5.80;99.90
30572;DHT22;17348;50.948;10.696;2023-01-15T15:14:03;5.80;99.90
30572;DHT22;17348;50.948;10.696;2023-01-15T15:17:19;5.80;99.90
30572;DHT22;17348;50.948;10.696;2023-01-15T15:20:30;5.80;99.90
30572;DHT22;17348;50.948;10.696;2023-01-15T15:23:41;5.80;99.90
30572;DHT22;17348;50.948;10.696;2023-01-15T15:26:44;5.80;99.90
30572;DHT22;17348;50.948;10.696;2023-01-15T15:29:48;5.80;99.90
30572;DHT22;17348;50.948;10.696;2023-01-15T15:32:51;5.80;99.90
30572;DHT22;17348;50.948;10.696;2023-01-15T15:35:56;5.80;99.90
30572;DHT22;17348;50.948;10.696;2023-01-15T15:39:03;5.80;99.90
30572;DHT22;17348;50.948;10.696;2023-01-15T15:42:08;5.80;99.90
30572;DHT22;17348;50.948;10.696;2023-01-15T15:45:31;5.80;99.90
30572;DHT22;17348;50.948;10.696;2023-01-15T15:48:56;5.80;99.90
30572;DHT22;17348;50.948;10.696;2023-01-15T15:51:58;5.70;99.90
30572;DHT22;17348;50.948;10.696;2023-01-15T15:55:02;5.70;99.90
30572;DHT22;17348;50.948;10.696;2023-01-15T15:58:07;5.70;99.90
30572;DHT22;17348;50.948;10.696;2023-01-15T16:01:12;5.70;99.90
30572;DHT22;17348;50.948;10.696;2023-01-15T16:04:16;5.70;99.90
30572;DHT22;17348;50.948;10.696;2023-01-15T16:07:22;5.70;99.90
30572;DHT22;17348;50.948;10.696;2023-01-15T16:10:30;5.70;99.90
30572;DHT22;17348;50.948;10.696;2023-01-15T16:13:35;5.70;99.90
30572;DHT22;17348;50.948;10.696;2023-01-15T16:16:41;5.70;99.90
30572;DHT22;17348;50.948;10.696;2023-01-15T16:19:44;5.70;99.90
30572;DHT22;17348;50.948;10.696;2023-01-15T16:22:48;5.70;99.90
30572;DHT22;17348;50.948;10.696;2023-01-15T16:26:03;5.70;99.90
30572;DHT22;17348;50.948;10.696;2023-01-15T16:29:16;5.70;99.90
30572;DHT22;17348;50.948;10.696;2023-01-15T16:32:24;5.60;99.90
30572;DHT22;17348;50.948;10.696;2023-01-15T16:35:29;5.60;99.90
30572;DHT22;17348;50.948;10.696;2023-01-15T16:38:34;5.60;99.90
30572;DHT22;17348;50.948;10.696;2023-01-15T16:41:39;5.50;99.90
30572;DHT22;17348;50.948;10.696;2023-01-15T16:44:50;5.50;99.90
30572;DHT22;17348;50.948;10.696;2023-01-15T16:48:02;5.50;99.90
30572;DHT22;17348;50.948;10.696;2023-01-15T16:51:32;5.50;99.90
30572;DHT22;17348;50.948;10.696;2023-01-15T16:54:45;5.40;99.90
30572;DHT22;17348;50.948;10.696;2023-01-15T16:57:47;5.40;99.90
30572;DHT22;17348;50.948;10.696;2023-01-15T17:00:51;5.40;99.90
30572;DHT22;17348;50.948;10.696;2023-01-15T17:03:57;5.40;99.90
30572;DHT22;17348;50.948;10.696;2023-01-15T17:07:01;5.40;99.90
30572;DHT22;17348;50.948;10.696;2023-01-15T17:10:16;5.30;99.90
30572;DHT22;17348;50.948;10.696;2023-01-15T17:13:18;5.30;99.90
30572;DHT22;17348;50.948;10.696;2023-01-15T17:16:21;5.30;99.90
30572;DHT22;17348;50.948;10.696;2023-01-15T17:19:25;5.30;99.90
30572;DHT22;17348;50.948;10.696;2023-01-15T17:22:30;5.30;99.90
30572;DHT22;17348;50.948;10.696;2023-01-15T17:25:33;5.30;99.90
30572;DHT22;17348;50.948;10.696;2023-01-15T17:28:36;5.30;99.90
30572;DHT22;17348;50.948;10.696;2023-01-15T17:31:38;5.20;99.90
30572;DHT22;17348;50.948;10.696;2023-01-15T17:34:44;5.20;99.90
30572;DHT22;17348;50.948;10.696;2023-01-15T17:37:47;5.20;99.90
30572;DHT22;17348;50.948;10.696;2023-01-15T17:40:49;5.20;99.90
30572;DHT22;17348;50.948;10.696;2023-01-15T17:43:52;5.20;99.90
30572;DHT22;17348;50.948;10.696;2023-01-15T17:46:55;5.20;99.90
30572;DHT22;17348;50.948;10.696;2023-01-15T17:49:58;5.20;99.90
30572;DHT22;17348;50.948;10.696;2023-01-15T17:53:02;5.20;99.90
30572;DHT22;17348;50.948;10.696;2023-01-15T17:56:05;5.20;99.90
30572;DHT22;17348;50.948;10.696;2023-01-15T17:59:25;5.20;99.90
30572;DHT22;17348;50.948;10.696;2023-01-15T18:02:44;5.20;99.90
30572;DHT22;17348;50.948;10.696;2023-01-15T18:06:09;5.20;99.90
30572;DHT22;17348;50.948;10.696;2023-01-15T18:09:12;5.10;99.90
30572;DHT22;17348;50.948;10.696;2023-01-15T18:12:15;5.20;99.90
30572;DHT22;17348;50.948;10.696;2023-01-15T18:15:17;5.20;99.90
30572;DHT22;17348;50.948;10.696;2023-01-15T18:18:20;5.20;99.90
30572;DHT22;17348;50.948;10.696;2023-01-15T18:21:24;5.20;99.90
30572;DHT22;17348;50.948;10.696;2023-01-15T18:24:26;5.10;99.90
30572;DHT22;17348;50.948;10.696;2023-01-15T18:27:29;5.20;99.90
30572;DHT22;17348;50.948;10.696;2023-01-15T18:30:32;5.20;99.90
30572;DHT22;17348;50.948;10.696;2023-01-15T18:33:35;5.20;99.90
30572;DHT22;17348;50.948;10.696;2023-01-15T18:36:38;5.30;99.90
30572;DHT22;17348;50.948;10.696;2023-01-15T18:39:41;5.30;99.90
30572;DHT22;17348;50.948;10.696;2023-01-15T18:42:44;5.30;99.90
30572;DHT22;17348;50.948;10.696;2023-01-15T18:46:04;5.40;99.90
30572;DHT22;17348;50.948;10.696;2023-01-15T18:49:24;5.40;99.90
30572;DHT22;17348;50.948;10.696;2023-01-15T18:52:28;5.50;99.90
30572;DHT22;17348;50.948;10.696;2023-01-15T18:55:48;5.50;99.90
30572;DHT22;17348;50.948;10.696;2023-01-15T18:58:50;5.50;99.90
30572;DHT22;17348;50.948;10.696;2023-01-15T19:01:52;5.50;99.90
30572;DHT22;17348;50.948;10.696;2023-01-15T19:04:56;5.40;99.90
30572;DHT22;17348;50.948;10.696;2023-01-15T19:08:01;5.40;99.90
30572;DHT22;17348;50.948;10.696;2023-01-15T19:11:09;5.40;99.90
30572;DHT22;17348;50.948;10.696;2023-01-15T19:14:13;5.40;99.90
30572;DHT22;17348;50.948;10.696;2023-01-15T19:17:32;5.40;99.90
30572;DHT22;17348;50.948;10.696;2023-01-15T19:20:52;5.40;99.90
30572;DHT22;17348;50.948;10.696;2023-01-15T19:23:56;5.40;99.90
30572;DHT22;17348;50.948;10.696;2023-01-15T19:26:58;5.40;99.90
30572;DHT22;17348;50.948;10.696;2023-01-15T19:30:01;5.50;99.90
30572;DHT22;17348;50.948;10.696;2023-01-15T19:33:05;5.50;99.90
30572;DHT22;17348;50.948;10.696;2023-01-15T19:36:08;5.50;99.90
30572;DHT22;17348;50.948;10.696;2023-01-15T19:39:12;5.40;99.90
30572;DHT22;17348;50.948;10.696;2023-01-15T19:42:15;5.40;99.90
30572;DHT22;17348;50.948;10.696;2023-01-15T19:45:37;5.30;99.90
30572;DHT22;17348;50.948;10.696;2023-01-15T19:48:57;5.20;99.90
30572;DHT22;17348;50.948;10.696;2023-01-15T19:52:17;5.10;99.90
30572;DHT22;17348;50.948;10.696;2023-01-15T19:55:43;5.10;99.90
30572;DHT22;17348;50.948;10.696;2023-01-15T19:58:45;5.00;99.90